Flight Track Log - Related Links

Times and Time Zones

All times are in EST time to prevent confusion due to time zone crossing. See the N8445S flight status page for this flight to view local times or setup timezone preferences in your user account.

Time Position Orientation Groundspeed Altitude Reporting Facility
EST Latitude Longitude Course Direction KTS MPH feet Rate Location/Type
Wed 07:30:03 PM 37.1247 -76.5008 247° West 99 114 500  Level Washington Center
Wed 07:31:22 PM 37.1142 -76.5322 247° West 74 85 1,500 729 Climbing Washington Center
Wed 07:32:23 PM 37.1078 -76.5556 251° West 75 86 2,200 706 Climbing Washington Center
Wed 07:34:12 PM 37.1500 -76.5833 332° Northwest 76 87 3,500 639 Climbing Potomac TRACON
Wed 07:35:12 PM 37.1667 -76.5833 360° North 71 82 4,000 550 Climbing Potomac TRACON
Wed 07:36:12 PM 37.1833 -76.5833 360° North 69 79 4,600 333 Climbing Potomac TRACON
Wed 07:38:12 PM 37.2167 -76.6000 338° Northwest 90 104 5,000 133 Climbing Potomac TRACON
Wed 07:39:12 PM 37.2333 -76.6000 360° North 80 92 5,000  Level Potomac TRACON
Wed 07:40:12 PM 37.2500 -76.6167 321° Northwest 85 98 5,000  Level Potomac TRACON
Wed 07:41:12 PM 37.2667 -76.6333 321° Northwest 79 91 5,000  Level Potomac TRACON
Wed 07:42:12 PM 37.3000 -76.6333 360° North 79 91 5,000 48 Level Potomac TRACON
Wed 07:43:18 PM 37.3167 -76.6500 322° Northwest 76 87 5,100 48 Climbing Potomac TRACON
Wed 07:44:18 PM 37.3333 -76.6667 322° Northwest 81 93 5,100  Level Potomac TRACON
Wed 07:45:18 PM 37.3500 -76.6667 360° North 80 92 5,100  Level Potomac TRACON
Wed 07:46:18 PM 37.3667 -76.6833 322° Northwest 79 91 5,100  Level Potomac TRACON
Wed 07:47:18 PM 37.4000 -76.6833 360° North 83 96 5,100  Level Potomac TRACON
Wed 07:48:12 PM 37.4167 -76.7000 322° Northwest 78 90 5,100  Level Potomac TRACON
Wed 07:49:18 PM 37.4333 -76.7000 360° North 73 84 5,100 -48 Level Potomac TRACON
Wed 07:50:18 PM 37.4500 -76.7167 322° Northwest 92 106 5,000 -48 Descending Potomac TRACON
Wed 07:51:24 PM 37.4833 -76.7000 22° Northeast 87 100 5,000  Level Potomac TRACON
Wed 07:52:24 PM 37.5000 -76.7000 360° North 92 106 5,000  Level Potomac TRACON
Wed 07:53:18 PM 37.5333 -76.7000 360° North 94 108 5,000  Level Potomac TRACON
Wed 07:54:24 PM 37.5500 -76.7000 360° North 91 105 5,000  Level Potomac TRACON
Wed 07:55:24 PM 37.5833 -76.7000 360° North 92 106 5,000 50 Level Potomac TRACON
Wed 07:56:24 PM 37.6000 -76.7000 360° North 98 113 5,100 50 Climbing Potomac TRACON
Wed 07:57:24 PM 37.6333 -76.7000 360° North 91 105 5,100  Level Potomac TRACON
Wed 07:58:24 PM 37.6500 -76.7000 360° North 93 107 5,100 -50 Level Potomac TRACON
Wed 07:59:24 PM 37.6833 -76.7000 360° North 95 109 5,000 -48 Descending Potomac TRACON
Wed 08:00:30 PM 37.7167 -76.6833 22° Northeast 100 115 5,000  Level Potomac TRACON
Wed 08:01:36 PM 37.7333 -76.6833 360° North 91 105 5,000 50 Level Potomac TRACON
Wed 08:02:30 PM 37.7500 -76.6833 360° North 93 107 5,100 62 Climbing Potomac TRACON
Wed 08:03:13 PM 37.7761 -76.6872 353° North 91 105 5,100 -67 Level Washington Center
Wed 08:03:59 PM 37.7950 -76.6875 359° North 93 107 5,000  Descending Washington Center
Wed 08:05:01 PM 37.8200 -76.6828 North 89 102 5,100  Climbing Washington Center
Wed 08:06:04 PM 37.8431 -76.6831 359° North 86 99 5,000 -50 Descending Washington Center
Wed 08:07:01 PM 37.8658 -76.6833 359° North 85 98 5,000  Level Washington Center
Wed 08:07:57 PM 37.8889 -76.6811 North 87 100 5,000 52 Level Washington Center
Wed 08:08:57 PM 37.9139 -76.6761 North 94 108 5,100  Climbing Washington Center
Wed 08:09:57 PM 37.9411 -76.6661 16° North 97 112 5,000 -50 Descending Washington Center
Wed 08:10:58 PM 37.9661 -76.6533 22° Northeast 98 113 5,000  Level Washington Center
Wed 08:11:58 PM 37.9914 -76.6353 29° Northeast 104 120 5,000  Level Washington Center
Wed 08:12:59 PM 38.0167 -76.6197 26° Northeast 102 117 5,000  Level Washington Center
Wed 08:13:59 PM 38.0417 -76.6069 22° Northeast 100 115 5,000 50 Level Washington Center
Wed 08:15:00 PM 38.0689 -76.5914 24° Northeast 97 112 5,100 49 Climbing Washington Center
Wed 08:16:01 PM 38.0961 -76.5839 12° North 98 113 5,100  Level Washington Center
Wed 08:16:55 PM 38.1211 -76.5736 18° North 101 116 5,100  Level Washington Center
Wed 08:17:56 PM 38.1444 -76.5528 35° Northeast 107 123 5,100 -49 Level Washington Center
Wed 08:18:57 PM 38.1694 -76.5400 22° Northeast 102 117 5,000  Descending Washington Center
Wed 08:19:57 PM 38.1989 -76.5217 26° Northeast 103 119 5,100 50 Climbing Washington Center
Wed 08:20:58 PM 38.2239 -76.5061 26° Northeast 106 122 5,100  Level Washington Center
Wed 08:21:59 PM 38.2492 -76.4933 22° Northeast 104 120 5,100  Level Washington Center
Wed 08:23:00 PM 38.2783 -76.4831 15° North 101 116 5,100  Level Washington Center
Wed 08:24:01 PM 38.3056 -76.4703 20° North 104 120 5,100  Level Washington Center
Wed 08:25:02 PM 38.3347 -76.4572 19° North 108 124 5,100 -50 Level Washington Center
Wed 08:26:02 PM 38.3619 -76.4417 24° Northeast 110 127 5,000  Descending Washington Center
Wed 08:27:03 PM 38.3892 -76.4289 20° North 103 119 5,100 50 Climbing Washington Center
Wed 08:28:03 PM 38.4164 -76.4158 21° North 105 121 5,100  Level Washington Center
Wed 08:29:04 PM 38.4417 -76.4003 26° Northeast 106 122 5,100 -35 Level Washington Center
Wed 08:30:55 PM 38.5000 -76.3667 24° Northeast 105 121 5,000 -35 Descending Potomac TRACON
Wed 08:31:55 PM 38.5167 -76.3667 360° North 104 120 5,000  Level Potomac TRACON
Wed 08:32:55 PM 38.5500 -76.3500 21° North 107 123 5,000  Level Potomac TRACON
Wed 08:33:55 PM 38.5833 -76.3333 21° North 109 125 5,000  Level Potomac TRACON
Wed 08:34:55 PM 38.6000 -76.3167 38° Northeast 105 121 5,000  Level Potomac TRACON
Wed 08:35:55 PM 38.6333 -76.3167 360° North 100 115 5,000  Level Potomac TRACON
Wed 08:36:55 PM 38.6500 -76.3000 38° Northeast 105 121 5,000  Level Potomac TRACON
Wed 08:37:55 PM 38.6833 -76.3000 360° North 99 114 5,000  Level Potomac TRACON
Wed 08:38:55 PM 38.7167 -76.2833 21° North 95 109 5,000  Level Potomac TRACON
Wed 08:39:55 PM 38.7333 -76.2833 360° North 100 115 5,000  Level Potomac TRACON
Wed 08:40:55 PM 38.7667 -76.2667 21° North 99 114 5,000  Level Potomac TRACON
Wed 08:41:55 PM 38.7833 -76.2667 360° North 99 114 5,000  Level Potomac TRACON
Wed 08:43:01 PM 38.8167 -76.2500 21° North 106 122 5,000  Level Potomac TRACON
Wed 08:44:01 PM 38.8500 -76.2500 360° North 98 113 5,000 200 Level Potomac TRACON
Wed 08:45:01 PM 38.8667 -76.2500 360° North 91 105 5,400 421 Climbing Potomac TRACON
Wed 08:45:55 PM 38.8833 -76.2500 360° North 65 75 5,800 263 Climbing Potomac TRACON
Wed 08:46:55 PM 38.9000 -76.2667 322° Northwest 79 91 5,900 100 Climbing Potomac TRACON
Wed 08:47:55 PM 38.9167 -76.2833 322° Northwest 77 89 6,000 50 Climbing Potomac TRACON
Wed 08:48:55 PM 38.9333 -76.3000 322° Northwest 77 89 6,000  Level Potomac TRACON
Wed 08:49:55 PM 38.9500 -76.3167 322° Northwest 78 90 6,000 -50 Level Potomac TRACON
Wed 08:50:55 PM 38.9667 -76.3333 322° Northwest 79 91 5,900  Descending Potomac TRACON
Wed 08:51:55 PM 38.9833 -76.3500 322° Northwest 76 87 6,000 50 Climbing Potomac TRACON
Wed 08:52:56 PM 38.9833 -76.3833 270° West 71 82 6,000  Level Potomac TRACON
Wed 08:53:56 PM 39.0000 -76.4000 322° Northwest 70 81 6,000  Level Potomac TRACON
Wed 08:54:56 PM 39.0000 -76.4167 270° West 70 81 6,000 -50 Level Potomac TRACON
Wed 08:55:56 PM 39.0167 -76.4500 303° West 68 78 5,900 -50 Descending Potomac TRACON
Wed 08:56:56 PM 39.0167 -76.4667 270° West 67 77 5,900  Level Potomac TRACON
Wed 08:57:56 PM 39.0167 -76.4833 270° West 65 75 5,900  Level Potomac TRACON
Wed 08:58:56 PM 39.0333 -76.5167 303° West 68 78 5,900 50 Level Potomac TRACON
Wed 08:59:56 PM 39.0333 -76.5333 270° West 70 81 6,000 50 Climbing Potomac TRACON
Wed 09:00:56 PM 39.0333 -76.5500 270° West 67 77 6,000  Level Potomac TRACON
Wed 09:01:55 PM 39.0500 -76.5833 303° West 69 79 6,000  Level Potomac TRACON
Wed 09:02:56 PM 39.0500 -76.6000 270° West 68 78 6,000 50 Level Potomac TRACON
Wed 09:03:56 PM 39.0500 -76.6333 270° West 70 81 6,100  Climbing Potomac TRACON
Wed 09:04:56 PM 39.0500 -76.6500 270° West 68 78 6,000  Descending Potomac TRACON
Wed 09:05:56 PM 39.0667 -76.6833 303° West 67 77 6,100 50 Climbing Potomac TRACON
Wed 09:06:56 PM 39.0667 -76.7000 270° West 69 79 6,100 -100 Level Potomac TRACON
Wed 09:07:56 PM 39.0667 -76.7167 270° West 78 90 5,900 -250 Descending Potomac TRACON
Wed 09:08:56 PM 39.0833 -76.7500 303° West 79 91 5,600 -300 Descending Potomac TRACON
Wed 09:09:56 PM 39.0833 -76.7833 270° West 86 99 5,300 -300 Descending Potomac TRACON
Wed 09:10:56 PM 39.0833 -76.8000 270° West 87 100 5,000 -300 Descending Potomac TRACON
Wed 09:11:56 PM 39.1000 -76.8333 303° West 91 105 4,700 -250 Descending Potomac TRACON
Wed 09:12:56 PM 39.1000 -76.8667 270° West 91 105 4,500 -350 Descending Potomac TRACON
Wed 09:13:56 PM 39.1167 -76.9000 303° West 92 106 4,000 -500 Descending Potomac TRACON
Wed 09:14:56 PM 39.1167 -76.9333 270° West 90 104 3,500 -450 Descending Potomac TRACON
Wed 09:15:56 PM 39.1333 -76.9667 303° West 89 102 3,100 -400 Descending Potomac TRACON
Wed 09:16:56 PM 39.1333 -77.0000 270° West 95 109 2,700 -450 Descending Potomac TRACON
Wed 09:17:56 PM 39.1333 -77.0333 270° West 97 112 2,200 -400 Descending Potomac TRACON
Wed 09:18:56 PM 39.1500 -77.0667 303° West 102 117 1,900 -300 Descending Potomac TRACON
Wed 09:19:56 PM 39.1500 -77.1000 270° West 113 130 1,600 -250 Descending Potomac TRACON
Wed 09:20:56 PM 39.1667 -77.1333 303° West 113 130 1,400 -198 Descending Potomac TRACON
Wed 09:21:57 PM 39.1833 -77.1667 303° West 112 129 1,200 -197 Descending Potomac TRACON
Wed 09:23:00 PM 39.1683 -77.1660 142° Southeast  Level Estimated
Wed 09:30:00 PM 39.1683 -77.1660 288° West  Level Estimated
Wed 09:31:00 PM 39.1683 -77.1660 288° West  Level Estimated
Wed 09:32:00 PM 39.1683 -77.1660 288° West  Level Estimated
Wed 09:33:00 PM 39.1683 -77.1660 288° West  Level Estimated

Login

Don't have an account? Register now (free) for customized features, flight alerts, and more!